Time;durP1;ratioP1;P1;durP2;ratioP2;P2;SDS_P1;SDS_P2;PMS_P1;PMS_P2;Temp;Humidity;BMP_temperature;BMP_pressure;BME280_temperature;BME280_humidity;BME280_pressure;Samples;Min_cycle;Max_cycle;Signal;HPM_P1;HPM_P2
2024/01/19 00:00:01;;;;;;;13.60;6.68;;;;;;;-3.01;100.00;95274.38;2066609;28;20478;-57
2024/01/19 00:01:02;;;;;;;17.58;8.50;;;;;;;-3.01;100.00;95284.53;2066690;28;20046;-57
2024/01/19 00:02:03;;;;;;;14.63;8.07;;;;;;;-3.03;100.00;95270.97;2066451;28;20042;-57
2024/01/19 00:03:04;;;;;;;14.27;7.82;;;;;;;-3.02;100.00;95272.69;2065475;28;20054;-56
2024/01/19 00:04:05;;;;;;;16.77;8.13;;;;;;;-3.05;100.00;95280.31;2066187;28;20054;-57
2024/01/19 00:05:07;;;;;;;21.73;8.35;;;;;;;-3.05;100.00;95282.00;2066484;28;20410;-57
2024/01/19 00:06:08;;;;;;;16.40;6.65;;;;;;;-3.08;100.00;95279.50;2066440;28;20042;-56
2024/01/19 00:07:09;;;;;;;18.75;8.43;;;;;;;-3.07;99.81;95286.25;2066621;28;20050;-56
2024/01/19 00:08:10;;;;;;;17.88;8.32;;;;;;;-3.06;100.00;95288.78;2066338;28;20109;-57
2024/01/19 00:09:11;;;;;;;15.63;7.95;;;;;;;-3.05;100.00;95295.53;2066487;28;20054;-56
2024/01/19 00:10:13;;;;;;;14.60;8.05;;;;;;;-3.05;100.00;95292.16;2065836;28;20058;-57
2024/01/19 00:11:14;;;;;;;18.45;7.95;;;;;;;-3.07;100.00;95291.31;2066311;28;20066;-57
2024/01/19 00:12:15;;;;;;;14.85;6.82;;;;;;;-3.10;100.00;95297.28;2066073;28;20050;-54
2024/01/19 00:13:16;;;;;;;17.23;7.57;;;;;;;-3.12;100.00;95294.75;2066330;28;20046;-54
2024/01/19 00:14:18;;;;;;;15.13;7.38;;;;;;;-3.12;99.79;95291.38;2066473;28;20470;-57
2024/01/19 00:15:19;;;;;;;13.52;7.13;;;;;;;-3.13;100.00;95293.06;2066515;28;20049;-56
2024/01/19 00:16:20;;;;;;;19.08;8.32;;;;;;;-3.12;100.00;95292.22;2066261;28;20045;-55
2024/01/19 00:17:21;;;;;;;12.98;6.10;;;;;;;-3.12;100.00;95286.28;2066241;28;20390;-55
2024/01/19 00:18:23;;;;;;;19.27;8.15;;;;;;;-3.11;100.00;95293.88;2066439;28;20049;-55
2024/01/19 00:19:24;;;;;;;17.83;7.80;;;;;;;-3.12;100.00;95292.22;2065743;28;20054;-57
2024/01/19 00:20:25;;;;;;;16.48;8.48;;;;;;;-3.14;100.00;95300.69;2066448;28;20490;-56
2024/01/19 00:21:27;;;;;;;17.92;7.95;;;;;;;-3.10;100.00;95307.44;2066334;28;20038;-56
2024/01/19 00:22:28;;;;;;;16.30;8.55;;;;;;;-3.08;100.00;95308.25;2066231;28;20046;-55
2024/01/19 00:23:29;;;;;;;16.00;8.60;;;;;;;-3.08;100.00;95312.50;2065712;28;20058;-57
2024/01/19 00:24:30;;;;;;;14.10;8.07;;;;;;;-3.11;100.00;95313.38;2066237;28;20391;-56
2024/01/19 00:25:31;;;;;;;13.60;7.22;;;;;;;-3.12;100.00;95319.31;2065725;28;20057;-56
2024/01/19 00:26:32;;;;;;;16.30;8.02;;;;;;;-3.12;100.00;95310.00;2065488;28;20058;-56
2024/01/19 00:27:33;;;;;;;14.50;7.60;;;;;;;-3.12;100.00;95316.78;2066139;28;20041;-57
2024/01/19 00:28:35;;;;;;;12.70;7.20;;;;;;;-3.14;100.00;95308.31;2066345;28;20046;-56
2024/01/19 00:29:36;;;;;;;17.13;8.13;;;;;;;-3.17;100.00;95313.41;2066323;28;20520;-57
2024/01/19 00:30:37;;;;;;;15.25;8.30;;;;;;;-3.16;100.00;95310.84;2066160;28;20062;-57
2024/01/19 00:31:38;;;;;;;16.35;7.72;;;;;;;-3.16;100.00;95315.09;2066278;28;20042;-56
2024/01/19 00:32:39;;;;;;;15.00;7.63;;;;;;;-3.16;100.00;95320.16;2066309;28;20406;-56
2024/01/19 00:33:40;;;;;;;16.05;7.78;;;;;;;-3.16;100.00;95317.63;2065538;28;20062;-57
2024/01/19 00:34:41;;;;;;;16.98;8.50;;;;;;;-3.15;100.00;95324.41;2066312;28;20050;-54
2024/01/19 00:35:42;;;;;;;16.10;7.70;;;;;;;-3.17;100.00;95319.31;2066256;28;20046;-56
2024/01/19 00:36:44;;;;;;;14.63;6.85;;;;;;;-3.20;100.00;95329.50;2065986;28;20076;-56
2024/01/19 00:37:45;;;;;;;15.63;7.85;;;;;;;-3.19;100.00;95320.19;2065607;28;20058;-56
2024/01/19 00:38:46;;;;;;;16.05;8.35;;;;;;;-3.21;100.00;95322.72;2065619;28;20069;-57
2024/01/19 00:39:47;;;;;;;17.10;8.18;;;;;;;-3.21;100.00;95322.72;2066111;28;20050;-57
2024/01/19 00:40:48;;;;;;;15.07;6.93;;;;;;;-3.23;100.00;95323.59;2066229;28;20474;-54
2024/01/19 00:41:49;;;;;;;14.68;7.88;;;;;;;-3.20;100.00;95328.66;2065653;28;20062;-57
2024/01/19 00:42:50;;;;;;;14.13;7.97;;;;;;;-3.21;100.00;95332.03;2066201;28;20050;-57
2024/01/19 00:43:52;;;;;;;15.18;7.57;;;;;;;-3.22;100.00;95330.34;2066411;28;20038;-57
2024/01/19 00:44:53;;;;;;;17.95;6.97;;;;;;;-3.23;100.00;95334.59;2065825;28;20054;-57
2024/01/19 00:45:54;;;;;;;14.00;7.13;;;;;;;-3.24;100.00;95335.44;2066124;28;20065;-57
2024/01/19 00:46:55;;;;;;;14.18;6.97;;;;;;;-3.24;100.00;95345.59;2066831;28;20057;-57
2024/01/19 00:47:56;;;;;;;17.13;7.68;;;;;;;-3.25;100.00;95327.84;2066482;28;20050;-57
2024/01/19 00:48:57;;;;;;;16.10;7.70;;;;;;;-3.26;100.00;95339.69;2065489;28;20061;-56
2024/01/19 00:49:59;;;;;;;17.08;8.00;;;;;;;-3.25;100.00;95343.91;2065740;28;20062;-57
2024/01/19 00:51:00;;;;;;;16.90;7.43;;;;;;;-3.26;100.00;95342.22;2066357;28;20510;-57
2024/01/19 00:52:01;;;;;;;12.95;6.18;;;;;;;-3.33;100.00;95328.72;2066066;28;20046;-56
2024/01/19 00:53:02;;;;;;;14.25;7.07;;;;;;;-3.33;100.00;95328.72;2065984;28;20090;-57
2024/01/19 00:54:03;;;;;;;12.75;7.03;;;;;;;-3.34;100.00;95331.28;2065319;28;20494;-56
2024/01/19 00:55:05;;;;;;;18.02;7.88;;;;;;;-3.32;100.00;95330.38;2057337;28;20057;-57
2024/01/19 00:56:08;;;;;;;14.88;7.18;;;;;;;-3.34;100.00;95339.72;2049417;28;20051;-55
2024/01/19 00:57:09;;;;;;;12.70;6.88;;;;;;;-3.33;100.00;95336.31;2057087;28;20059;-58
2024/01/19 00:58:10;;;;;;;15.98;7.63;;;;;;;-3.33;100.00;95343.09;2065955;28;20058;-57
2024/01/19 00:59:11;;;;;;;17.05;7.85;;;;;;;-3.32;100.00;95347.31;2065032;28;20069;-56
2024/01/19 01:00:12;;;;;;;18.52;8.27;;;;;;;-3.30;100.00;95348.16;2065921;28;20493;-57
2024/01/19 01:01:14;;;;;;;15.45;7.20;;;;;;;-3.30;100.00;95353.25;2066098;28;20479;-57
2024/01/19 01:02:15;;;;;;;18.38;8.45;;;;;;;-3.32;100.00;95347.31;2066049;28;20054;-57
2024/01/19 01:03:23;;;;;;;14.77;7.90;;;;;;;-3.32;100.00;95349.84;2065996;28;20053;-57
2024/01/19 01:04:24;;;;;;;14.10;7.32;;;;;;;-3.34;100.00;95347.34;2065942;28;20042;-56
2024/01/19 01:05:25;;;;;;;10.38;5.43;;;;;;;-3.38;100.00;95349.88;2065383;28;20057;-57
2024/01/19 01:06:26;;;;;;;15.23;6.85;;;;;;;-3.35;100.00;95353.25;2057449;28;20398;-56
2024/01/19 01:07:28;;;;;;;18.33;8.40;;;;;;;-3.34;100.00;95352.41;2057030;28;20055;-56
2024/01/19 01:08:29;;;;;;;14.38;6.68;;;;;;;-3.36;100.00;95354.13;2065962;28;20042;-56
2024/01/19 01:09:30;;;;;;;14.02;7.68;;;;;;;-3.36;100.00;95354.13;2065962;28;20049;-57
2024/01/19 01:10:31;;;;;;;13.75;7.10;;;;;;;-3.35;100.00;95354.94;2065023;28;20061;-57
2024/01/19 01:11:32;;;;;;;19.88;8.07;;;;;;;-3.35;100.00;95357.50;2056660;28;20537;-57
2024/01/19 01:12:33;;;;;;;17.45;8.32;;;;;;;-3.35;100.00;95365.09;2056925;28;20057;-58
2024/01/19 01:13:34;;;;;;;17.30;8.05;;;;;;;-3.36;100.00;95366.81;2065981;28;20375;-57
2024/01/19 01:14:35;;;;;;;15.40;7.80;;;;;;;-3.39;100.00;95364.28;2065194;28;20058;-56
2024/01/19 01:15:36;;;;;;;15.32;8.70;;;;;;;-3.37;100.00;95372.75;2064944;28;20077;-56
2024/01/19 01:16:38;;;;;;;15.20;8.65;;;;;;;-3.37;100.00;95376.97;2065411;28;20057;-56
2024/01/19 01:17:39;;;;;;;17.67;8.25;;;;;;;-3.33;100.00;95376.09;2065801;28;20046;-57
2024/01/19 01:18:40;;;;;;;13.43;7.28;;;;;;;-3.35;100.00;95378.63;2065780;28;20054;-57
2024/01/19 01:19:41;;;;;;;16.88;7.80;;;;;;;-3.38;100.00;95375.28;2065933;28;20053;-57
2024/01/19 01:20:43;;;;;;;23.48;8.70;;;;;;;-3.37;100.00;95374.41;2065836;28;20429;-57
2024/01/19 01:21:44;;;;;;;15.55;8.32;;;;;;;-3.37;100.00;95376.97;2065776;28;20057;-57
2024/01/19 01:22:45;;;;;;;19.13;9.13;;;;;;;-3.38;100.00;95370.19;2066028;28;20493;-57
2024/01/19 01:23:46;;;;;;;16.95;8.98;;;;;;;-3.38;100.00;95381.19;2065989;28;20046;-57
2024/01/19 01:24:47;;;;;;;16.00;8.73;;;;;;;-3.37;100.00;95382.91;2065296;28;20050;-57
2024/01/19 01:25:48;;;;;;;16.77;7.82;;;;;;;-3.37;100.00;95376.97;2065600;28;20512;-56
2024/01/19 01:26:49;;;;;;;17.38;8.73;;;;;;;-3.38;100.00;95383.72;2065993;28;20049;-57
2024/01/19 01:27:51;;;;;;;18.75;8.20;;;;;;;-3.38;100.00;95385.44;2065759;28;20058;-56
2024/01/19 01:28:52;;;;;;;25.33;9.00;;;;;;;-3.41;100.00;95383.75;2065234;28;20054;-57
2024/01/19 01:29:53;;;;;;;17.50;8.13;;;;;;;-3.41;100.00;95381.22;2065945;28;20057;-57
2024/01/19 01:30:54;;;;;;;19.63;9.23;;;;;;;-3.40;100.00;95382.88;2065961;28;20058;-57
2024/01/19 01:31:55;;;;;;;16.67;8.30;;;;;;;-3.41;100.00;95386.28;2065790;28;20046;-57
2024/01/19 01:32:56;;;;;;;19.08;9.00;;;;;;;-3.41;100.00;95393.91;2065514;28;20482;-57
2024/01/19 01:33:57;;;;;;;16.27;8.50;;;;;;;-3.41;100.00;95409.13;2066040;28;20057;-56
2024/01/19 01:34:59;;;;;;;19.48;8.73;;;;;;;-3.42;100.00;95404.06;2065961;28;20050;-56
2024/01/19 01:36:00;;;;;;;16.42;7.82;;;;;;;-3.44;100.00;95405.78;2065977;28;20043;-56
2024/01/19 01:37:01;;;;;;;15.68;8.13;;;;;;;-3.43;100.00;95404.91;2065803;28;20046;-56
2024/01/19 01:38:03;;;;;;;17.60;9.15;;;;;;;-3.46;100.00;95408.31;2065655;28;20050;-57
2024/01/19 01:39:04;;;;;;;23.15;8.60;;;;;;;-3.46;100.00;95407.47;2065654;28;20061;-56
2024/01/19 01:40:06;;;;;;;16.63;7.90;;;;;;;-3.47;100.00;95405.78;2065479;28;20074;-57
2024/01/19 01:41:08;;;;;;;18.48;8.65;;;;;;;-3.52;100.00;95408.31;2065478;28;20050;-57
2024/01/19 01:42:09;;;;;;;15.52;7.85;;;;;;;-3.46;100.00;95417.63;2064634;28;20069;-57
2024/01/19 01:43:13;;;;;;;17.67;9.23;;;;;;;-3.48;100.00;95419.31;2065624;28;20174;-56
2024/01/19 01:44:14;;;;;;;15.70;7.82;;;;;;;-3.48;100.00;95426.91;2049036;29;20046;-57
2024/01/19 01:45:15;;;;;;;17.23;8.27;;;;;;;-3.48;100.00;95432.00;2049727;28;20411;-57
2024/01/19 01:46:16;;;;;;;18.25;8.93;;;;;;;-3.49;100.00;95432.84;2065749;28;20043;-57
2024/01/19 01:47:17;;;;;;;19.15;9.43;;;;;;;-3.56;100.00;95426.94;2065479;28;20049;-57
2024/01/19 01:48:18;;;;;;;17.00;8.90;;;;;;;-3.50;100.00;95434.56;2064988;28;20054;-56
2024/01/19 01:49:20;;;;;;;16.15;7.97;;;;;;;-3.52;100.00;95436.25;2065221;28;20494;-54
2024/01/19 01:50:21;;;;;;;17.83;8.52;;;;;;;-3.49;100.00;95440.47;2049365;28;20054;-57
2024/01/19 01:51:22;;;;;;;15.27;8.65;;;;;;;-3.51;100.00;95437.09;2056748;28;20050;-55
2024/01/19 01:52:23;;;;;;;18.70;8.85;;;;;;;-3.53;100.00;95446.38;2056335;28;20403;-57
2024/01/19 01:53:24;;;;;;;18.08;8.40;;;;;;;-3.55;100.00;95446.41;2056992;28;20035;-57
2024/01/19 01:54:25;;;;;;;20.75;8.90;;;;;;;-3.59;100.00;95442.16;2056784;28;20466;-57
2024/01/19 01:55:26;;;;;;;14.00;7.75;;;;;;;-3.57;100.00;95450.63;2057122;28;20038;-56
2024/01/19 01:56:28;;;;;;;18.88;8.35;;;;;;;-3.59;100.00;95452.31;2065699;28;20038;-57
2024/01/19 01:57:29;;;;;;;18.27;8.57;;;;;;;-3.59;100.00;95442.16;2065544;28;20053;-57
2024/01/19 01:58:30;;;;;;;21.48;8.60;;;;;;;-3.60;100.00;95440.50;2064981;28;20065;-56
2024/01/19 01:59:31;;;;;;;17.83;8.50;;;;;;;-3.62;100.00;95445.56;2065229;28;20062;-57
2024/01/19 02:00:33;;;;;;;17.05;8.10;;;;;;;-3.63;100.00;95446.41;2065623;28;20038;-55
2024/01/19 02:01:34;;;;;;;19.52;8.68;;;;;;;-3.62;100.00;95447.25;2057176;28;20046;-57
2024/01/19 02:02:36;;;;;;;16.20;8.82;;;;;;;-3.69;100.00;95443.03;2056062;28;20059;-55
2024/01/19 02:03:37;;;;;;;19.25;8.75;;;;;;;-3.68;100.00;95455.72;2048981;28;20043;-55
2024/01/19 02:04:38;;;;;;;17.67;8.43;;;;;;;-3.66;100.00;95460.78;2056969;28;20035;-57
2024/01/19 02:05:39;;;;;;;14.73;7.95;;;;;;;-3.68;100.00;95459.97;2056623;28;20502;-56
2024/01/19 02:06:41;;;;;;;16.38;8.63;;;;;;;-3.69;100.00;95463.31;2056125;28;20059;-54
2024/01/19 02:07:42;;;;;;;21.00;8.65;;;;;;;-3.72;100.00;95460.78;2065449;28;20347;-57
2024/01/19 02:08:43;;;;;;;17.17;9.45;;;;;;;-3.69;100.00;95460.78;2065721;28;20045;-57
2024/01/19 02:09:44;;;;;;;18.60;8.63;;;;;;;-3.70;100.00;95466.72;2065609;28;20042;-56
2024/01/19 02:10:45;;;;;;;14.13;7.25;;;;;;;-3.72;100.00;95461.63;2056323;28;20058;-56
2024/01/19 02:11:47;;;;;;;22.67;8.00;;;;;;;-3.72;100.00;95456.56;2056029;28;20051;-57
2024/01/19 02:12:48;;;;;;;17.15;8.07;;;;;;;-3.71;100.00;95465.03;2064895;28;20069;-54
2024/01/19 02:13:49;;;;;;;19.73;8.02;;;;;;;-3.72;100.00;95470.94;2064892;28;20081;-56
2024/01/19 02:14:50;;;;;;;19.10;8.75;;;;;;;-3.73;100.00;95474.34;2065334;28;20470;-57
2024/01/19 02:15:51;;;;;;;15.75;9.43;;;;;;;-3.73;100.00;95472.63;2065314;28;20046;-56
2024/01/19 02:16:52;;;;;;;18.90;9.48;;;;;;;-3.72;100.00;95470.94;2056718;28;20138;-57
2024/01/19 02:17:54;;;;;;;15.50;8.63;;;;;;;-3.77;100.00;95478.53;2056783;28;20042;-57
2024/01/19 02:18:55;;;;;;;15.40;8.25;;;;;;;-3.78;100.00;95479.41;2065091;28;20050;-57
2024/01/19 02:19:56;;;;;;;18.42;8.75;;;;;;;-3.79;100.00;95481.09;2065384;28;20379;-57
2024/01/19 02:20:57;;;;;;;18.65;8.27;;;;;;;-3.79;100.00;95481.09;2065516;28;20479;-56
2024/01/19 02:21:58;;;;;;;19.98;10.02;;;;;;;-3.79;100.00;95490.41;2065558;28;20038;-57
2024/01/19 02:22:59;;;;;;;19.50;7.93;;;;;;;-3.84;100.00;95485.31;2065024;28;20069;-57
2024/01/19 02:24:02;;;;;;;15.77;8.95;;;;;;;-3.84;100.00;95487.03;2055973;28;20138;-57
2024/01/19 02:25:03;;;;;;;16.75;8.48;;;;;;;-3.87;100.00;95492.94;2056781;28;20446;-57
2024/01/19 02:26:04;;;;;;;17.92;8.48;;;;;;;-3.87;100.00;95498.00;2065435;28;20042;-57
2024/01/19 02:27:05;;;;;;;14.52;8.02;;;;;;;-3.85;100.00;95492.94;2065422;28;20042;-57
2024/01/19 02:28:06;;;;;;;15.27;8.13;;;;;;;-3.87;100.00;95489.56;2055940;28;20109;-57
2024/01/19 02:29:07;;;;;;;17.48;8.70;;;;;;;-3.87;100.00;95492.09;2056785;28;20051;-54
2024/01/19 02:30:10;;;;;;;19.88;8.73;;;;;;;-3.86;100.00;95494.63;2057106;28;20046;-57
2024/01/19 02:31:11;;;;;;;21.33;9.52;;;;;;;-3.84;100.00;95507.31;2065588;28;20058;-57
2024/01/19 02:32:12;;;;;;;18.38;7.88;;;;;;;-3.86;100.00;95502.22;2065608;28;20046;-57
2024/01/19 02:33:13;;;;;;;18.00;9.02;;;;;;;-3.85;100.00;95503.94;2064998;28;20383;-57
2024/01/19 02:34:15;;;;;;;18.10;8.45;;;;;;;-3.89;100.00;95494.63;2065600;28;20042;-57
2024/01/19 02:35:16;;;;;;;17.02;8.57;;;;;;;-3.85;100.00;95500.53;2064747;28;20058;-57
2024/01/19 02:36:17;;;;;;;19.85;9.63;;;;;;;-3.88;100.00;95496.31;2065672;28;20041;-57
2024/01/19 02:37:20;;;;;;;20.58;7.78;;;;;;;-3.92;100.00;95492.09;2065517;28;20042;-57
2024/01/19 02:38:21;;;;;;;18.40;9.75;;;;;;;-3.92;100.00;95492.09;2065158;28;20054;-57
2024/01/19 02:39:22;;;;;;;20.45;8.32;;;;;;;-3.89;100.00;95506.47;2064960;28;20073;-56
2024/01/19 02:40:23;;;;;;;16.48;7.85;;;;;;;-3.91;100.00;95506.44;2065055;28;20061;-56
2024/01/19 02:41:24;;;;;;;18.58;9.05;;;;;;;-3.90;100.00;95517.44;2064339;28;20061;-57
2024/01/19 02:42:25;;;;;;;17.92;8.35;;;;;;;-3.94;100.00;95506.47;2064908;28;20062;-56
2024/01/19 02:43:26;;;;;;;16.38;8.27;;;;;;;-3.95;100.00;95504.78;2065317;28;20027;-56
2024/01/19 02:44:28;;;;;;;20.65;10.27;;;;;;;-3.95;100.00;95512.38;2064956;28;20050;-57
2024/01/19 02:45:29;;;;;;;18.63;8.48;;;;;;;-3.95;100.00;95521.69;2065622;28;20053;-57
2024/01/19 02:46:30;;;;;;;19.25;9.10;;;;;;;-3.96;100.00;95514.91;2065637;28;20474;-56
2024/01/19 02:47:31;;;;;;;25.40;9.57;;;;;;;-3.96;100.00;95520.81;2065439;28;20043;-56
2024/01/19 02:48:32;;;;;;;19.77;9.20;;;;;;;-3.96;100.00;95514.91;2065493;28;20050;-56
2024/01/19 02:49:33;;;;;;;18.75;8.70;;;;;;;-3.99;100.00;95514.06;2065613;28;20415;-56
2024/01/19 02:50:35;;;;;;;21.42;9.95;;;;;;;-4.00;100.00;95511.53;2065357;28;20058;-56
2024/01/19 02:51:36;;;;;;;21.45;9.85;;;;;;;-4.03;100.00;95512.38;2065522;28;20372;-57
2024/01/19 02:52:37;;;;;;;19.63;9.23;;;;;;;-4.06;100.00;95509.00;2065597;28;20057;-57
2024/01/19 02:53:38;;;;;;;24.40;10.00;;;;;;;-4.09;100.00;95512.38;2065604;28;20049;-57
2024/01/19 02:54:39;;;;;;;19.92;9.00;;;;;;;-4.10;100.00;95517.44;2065644;28;20046;-56
2024/01/19 02:55:40;;;;;;;19.48;8.93;;;;;;;-4.14;100.00;95514.06;2065418;28;20034;-57
2024/01/19 02:56:42;;;;;;;19.45;8.77;;;;;;;-4.15;100.00;95516.56;2065652;28;20050;-57
2024/01/19 02:57:43;;;;;;;20.88;9.38;;;;;;;-4.18;100.00;95514.88;2065592;28;20038;-57
2024/01/19 02:58:44;;;;;;;18.30;9.35;;;;;;;-4.24;100.00;95513.16;2064750;28;20054;-57
2024/01/19 02:59:45;;;;;;;21.23;9.32;;;;;;;-4.25;100.00;95515.69;2065553;28;20069;-56
2024/01/19 03:00:46;;;;;;;19.85;9.85;;;;;;;-4.29;100.00;95525.00;2064667;28;20062;-57
2024/01/19 03:01:47;;;;;;;19.83;9.82;;;;;;;-4.34;100.00;95519.06;2065602;28;20043;-56
2024/01/19 03:02:48;;;;;;;24.30;11.10;;;;;;;-4.36;100.00;95512.28;2065539;28;20054;-56
2024/01/19 03:03:49;;;;;;;21.85;9.93;;;;;;;-4.40;100.00;95510.59;2065076;28;20508;-56
2024/01/19 03:04:51;;;;;;;23.55;10.27;;;;;;;-4.40;100.00;95519.06;2064860;28;20061;-56
2024/01/19 03:05:52;;;;;;;20.50;9.30;;;;;;;-4.44;100.00;95513.13;2065436;28;20050;-57
2024/01/19 03:06:53;;;;;;;22.60;9.60;;;;;;;-4.45;100.00;95518.19;2065293;28;20375;-56
2024/01/19 03:07:54;;;;;;;21.40;9.57;;;;;;;-4.47;100.00;95519.84;2065325;28;20043;-54
2024/01/19 03:08:55;;;;;;;20.58;10.20;;;;;;;-4.49;100.00;95522.41;2065407;28;20049;-55
2024/01/19 03:09:57;;;;;;;19.88;10.10;;;;;;;-4.52;100.00;95519.84;2064992;28;20386;-56
2024/01/19 03:10:58;;;;;;;22.90;12.07;;;;;;;-4.53;100.00;95522.38;2065578;28;20062;-57
2024/01/19 03:11:59;;;;;;;19.98;9.43;;;;;;;-4.51;100.00;95525.78;2055970;28;20059;-57
2024/01/19 03:13:00;;;;;;;20.38;9.65;;;;;;;-4.49;100.00;95526.59;2056592;28;20066;-54
2024/01/19 03:14:01;;;;;;;20.58;9.57;;;;;;;-4.49;100.00;95531.66;2065360;28;20402;-56
2024/01/19 03:15:02;;;;;;;19.60;9.07;;;;;;;-4.47;100.00;95532.53;2064832;28;20062;-57
2024/01/19 03:16:05;;;;;;;23.02;10.05;;;;;;;-4.45;100.00;95534.22;2065055;28;20050;-57
2024/01/19 03:17:06;;;;;;;20.60;9.75;;;;;;;-4.45;100.00;95533.41;2064864;28;20061;-54
2024/01/19 03:18:08;;;;;;;19.80;9.63;;;;;;;-4.42;100.00;95535.94;2066499;28;20390;-54
2024/01/19 03:19:09;;;;;;;21.20;10.18;;;;;;;-4.43;100.00;95526.66;2066963;28;20050;-57
2024/01/19 03:20:10;;;;;;;20.65;9.85;;;;;;;-4.40;100.00;95535.94;2066485;28;20058;-56
2024/01/19 03:21:12;;;;;;;22.40;9.32;;;;;;;-4.41;100.00;95529.16;2066143;28;20406;-57
2024/01/19 03:22:13;;;;;;;23.85;10.15;;;;;;;-4.40;100.00;95536.78;2057772;28;20130;-57
2024/01/19 03:23:14;;;;;;;22.50;9.80;;;;;;;-4.41;100.00;95537.66;2058174;28;20426;-56
2024/01/19 03:24:15;;;;;;;24.83;10.15;;;;;;;-4.45;100.00;95535.94;2065719;28;20055;-56
2024/01/19 03:25:16;;;;;;;26.58;10.50;;;;;;;-4.52;100.00;95546.88;2066446;28;20054;-57
2024/01/19 03:26:17;;;;;;;19.52;9.90;;;;;;;-4.56;100.00;95540.13;2066799;28;20065;-57
2024/01/19 03:27:18;;;;;;;22.05;9.88;;;;;;;-4.60;100.00;95543.47;2066713;28;20051;-57
2024/01/19 03:28:19;;;;;;;19.00;10.32;;;;;;;-4.63;100.00;95544.28;2066304;28;20054;-57
2024/01/19 03:29:22;;;;;;;22.00;9.93;;;;;;;-4.62;100.00;95545.13;2066864;28;20046;-57
2024/01/19 03:30:23;;;;;;;22.58;9.98;;;;;;;-4.64;100.00;95546.84;2066843;28;20053;-57
2024/01/19 03:31:25;;;;;;;23.88;11.32;;;;;;;-4.63;100.00;95544.28;2066634;28;20038;-56
2024/01/19 03:32:26;;;;;;;21.92;10.20;;;;;;;-4.66;100.00;95545.13;2066665;28;20069;-57
2024/01/19 03:33:27;;;;;;;23.55;11.35;;;;;;;-4.68;100.00;95543.44;2066735;28;20046;-56
2024/01/19 03:34:28;;;;;;;21.20;10.88;;;;;;;-4.68;100.00;95554.44;2066685;28;20034;-57
2024/01/19 03:35:29;;;;;;;22.15;10.23;;;;;;;-4.68;100.00;95556.09;2066889;28;20046;-57
2024/01/19 03:36:30;;;;;;;20.63;10.18;;;;;;;-4.72;100.00;95552.72;2066738;28;20497;-57
2024/01/19 03:37:31;;;;;;;19.40;9.95;;;;;;;-4.76;100.00;95556.06;2066723;28;20038;-57
2024/01/19 03:38:33;;;;;;;20.13;10.05;;;;;;;-4.78;100.00;95555.22;2066956;28;20042;-57
2024/01/19 03:39:34;;;;;;;19.27;10.05;;;;;;;-4.76;100.00;95557.75;2065883;28;20042;-57
2024/01/19 03:40:35;;;;;;;25.50;11.85;;;;;;;-4.77;100.00;95553.53;2066495;28;20369;-57
2024/01/19 03:41:36;;;;;;;24.05;10.75;;;;;;;-4.75;100.00;95557.78;2066606;28;20073;-57
2024/01/19 03:42:38;;;;;;;24.58;11.70;;;;;;;-4.76;100.00;95563.66;2066552;28;20054;-57
2024/01/19 03:43:39;;;;;;;21.98;10.38;;;;;;;-4.73;100.00;95560.28;2066533;28;20057;-54
2024/01/19 03:44:40;;;;;;;27.55;11.05;;;;;;;-4.74;100.00;95558.59;2066634;28;20505;-57
2024/01/19 03:45:41;;;;;;;20.75;10.70;;;;;;;-4.73;100.00;95562.81;2066553;28;20050;-55
2024/01/19 03:46:43;;;;;;;21.10;9.80;;;;;;;-4.73;100.00;95566.22;2066256;28;20057;-57
2024/01/19 03:47:45;;;;;;;21.13;10.80;;;;;;;-4.75;100.00;95562.84;2057908;28;20051;-55
2024/01/19 03:48:46;;;;;;;18.65;9.88;;;;;;;-4.76;100.00;95561.13;2057567;28;20043;-55
2024/01/19 03:49:47;;;;;;;23.70;10.93;;;;;;;-4.74;100.00;95571.28;2066545;28;20034;-57
2024/01/19 03:50:48;;;;;;;23.08;9.98;;;;;;;-4.75;100.00;95570.44;2066578;28;20057;-56
2024/01/19 03:52:05;;;;;;;28.42;11.93;;;;;;;-4.78;100.00;95567.88;2066637;28;20497;-57
2024/01/19 03:53:06;;;;;;;21.98;10.35;;;;;;;-4.80;100.00;95571.25;2066193;28;20047;-55
2024/01/19 03:54:08;;;;;;;19.67;10.57;;;;;;;-4.79;100.00;95570.41;2066573;28;20050;-57
2024/01/19 03:55:09;;;;;;;23.25;10.43;;;;;;;-4.81;100.00;95567.88;2066502;28;20638;-57
2024/01/19 03:56:10;;;;;;;22.55;10.60;;;;;;;-4.84;100.00;95570.38;2066755;28;20049;-57
2024/01/19 03:57:11;;;;;;;20.23;9.57;;;;;;;-4.91;100.00;95568.66;2058086;28;20046;-57
2024/01/19 03:58:12;;;;;;;25.20;10.43;;;;;;;-4.95;100.00;95572.00;2057903;28;20046;-57
2024/01/19 03:59:13;;;;;;;22.55;10.40;;;;;;;-5.01;100.00;95582.94;2066447;28;20517;-57
2024/01/19 04:00:14;;;;;;;25.75;10.38;;;;;;;-5.08;100.00;95570.22;2066569;28;20061;-57
2024/01/19 04:01:16;;;;;;;43.20;12.43;;;;;;;-5.14;100.00;95576.09;2066520;28;20046;-56
2024/01/19 04:02:17;;;;;;;19.60;9.88;;;;;;;-5.18;100.00;95579.47;2066497;28;20053;-57
2024/01/19 04:03:19;;;;;;;30.92;11.18;;;;;;;-5.21;100.00;95576.88;2066490;28;20474;-57
2024/01/19 04:04:21;;;;;;;24.70;10.25;;;;;;;-5.25;100.00;95578.56;2066510;28;20042;-57
2024/01/19 04:05:22;;;;;;;25.00;10.73;;;;;;;-5.26;100.00;95578.56;2066547;28;20034;-57
2024/01/19 04:06:23;;;;;;;26.40;11.05;;;;;;;-5.29;100.00;95574.34;2057973;28;20463;-57
2024/01/19 04:07:24;;;;;;;21.75;10.68;;;;;;;-5.32;100.00;95581.88;2057844;28;20046;-57
2024/01/19 04:08:26;;;;;;;26.92;11.48;;;;;;;-5.38;100.00;95581.84;2065985;28;20046;-57
2024/01/19 04:09:27;;;;;;;26.08;11.23;;;;;;;-5.36;100.00;95582.72;2066352;28;20383;-57
2024/01/19 04:10:29;;;;;;;25.60;11.73;;;;;;;-5.37;100.00;95583.56;2065750;28;20061;-57
2024/01/19 04:11:30;;;;;;;27.35;11.05;;;;;;;-5.40;100.00;95581.84;2066533;28;20042;-57
2024/01/19 04:12:31;;;;;;;27.80;11.18;;;;;;;-5.41;100.00;95579.28;2049533;29;20051;-57
2024/01/19 04:13:32;;;;;;;23.52;10.80;;;;;;;-5.42;100.00;95586.03;2050009;28;20439;-57
2024/01/19 04:14:33;;;;;;;21.50;10.48;;;;;;;-5.47;100.00;95584.31;2057795;28;20050;-57
2024/01/19 04:15:34;;;;;;;23.48;11.10;;;;;;;-5.54;100.00;95579.19;2065401;28;20058;-57
2024/01/19 04:16:36;;;;;;;25.40;10.88;;;;;;;-5.49;100.00;95578.38;2066630;28;20046;-57
2024/01/19 04:17:37;;;;;;;29.13;13.05;;;;;;;-5.54;100.00;95581.72;2066409;28;20054;-57
2024/01/19 04:18:38;;;;;;;28.70;11.90;;;;;;;-5.58;100.00;95579.16;2066445;28;20053;-57
2024/01/19 04:19:39;;;;;;;24.23;11.32;;;;;;;-5.54;100.00;95585.94;2066311;28;20038;-57
2024/01/19 04:20:41;;;;;;;28.27;11.20;;;;;;;-5.58;100.00;95581.69;2066216;28;20046;-57
2024/01/19 04:21:42;;;;;;;26.15;12.32;;;;;;;-5.56;100.00;95580.88;2066370;28;20046;-56
2024/01/19 04:22:43;;;;;;;28.75;11.90;;;;;;;-5.58;100.00;95580.00;2066332;28;20053;-57
2024/01/19 04:23:44;;;;;;;24.63;10.35;;;;;;;-5.60;100.00;95585.88;2066342;28;20053;-57
2024/01/19 04:24:45;;;;;;;23.75;11.60;;;;;;;-5.63;100.00;95585.88;2065769;28;20061;-54
2024/01/19 04:25:46;;;;;;;25.75;11.65;;;;;;;-5.69;100.00;95586.66;2066108;28;20054;-57
2024/01/19 04:26:48;;;;;;;22.17;10.30;;;;;;;-5.73;100.00;95596.72;2066610;28;20053;-57
2024/01/19 04:27:49;;;;;;;24.65;11.73;;;;;;;-5.77;100.00;95598.38;2066516;28;20053;-57
2024/01/19 04:28:50;;;;;;;29.63;11.77;;;;;;;-5.79;100.00;95597.53;2066111;28;20042;-57
2024/01/19 04:29:51;;;;;;;29.20;11.73;;;;;;;-5.80;100.00;95595.81;2066402;28;20394;-57
2024/01/19 04:30:52;;;;;;;27.50;11.55;;;;;;;-5.86;100.00;95594.06;2066253;28;20046;-57
2024/01/19 04:31:53;;;;;;;29.73;11.57;;;;;;;-5.90;100.00;95602.47;2066454;28;20095;-57
2024/01/19 04:32:54;;;;;;;28.85;12.13;;;;;;;-5.86;100.00;95601.66;2066139;28;20451;-57
2024/01/19 04:33:55;;;;;;;32.38;13.35;;;;;;;-5.83;100.00;95605.91;2065653;28;20054;-57
2024/01/19 04:34:56;;;;;;;33.03;12.95;;;;;;;-5.85;100.00;95605.91;2065940;28;20058;-57
2024/01/19 04:35:58;;;;;;;28.60;11.38;;;;;;;-5.81;100.00;95605.09;2066411;28;20193;-57
2024/01/19 04:36:59;;;;;;;32.28;14.07;;;;;;;-5.82;100.00;95605.94;2066154;28;20054;-57
2024/01/19 04:38:01;;;;;;;31.13;13.07;;;;;;;-5.85;100.00;95605.06;2065649;28;20058;-57
2024/01/19 04:39:02;;;;;;;29.15;12.73;;;;;;;-5.95;100.00;95604.13;2066300;28;20042;-57
2024/01/19 04:40:03;;;;;;;29.90;12.25;;;;;;;-5.91;100.00;95608.34;2066033;28;20050;-57